Time;durP1;ratioP1;P1;durP2;ratioP2;P2;SDS_P1;SDS_P2;PMS_P1;PMS_P2;Temp;Humidity;BMP_temperature;BMP_pressure;BME280_temperature;BME280_humidity;BME280_pressure;Samples;Min_cycle;Max_cycle;Signal;HPM_P1;HPM_P2
2024/01/22 00:02:09;;;;;;;5.55;4.93;;;;;;;6.61;100.00;100830.47;5037980;28;20040;-75
2024/01/22 00:04:35;;;;;;;5.65;4.93;;;;;;;6.59;100.00;100809.34;5039580;28;20537;-74
2024/01/22 00:07:00;;;;;;;5.70;4.80;;;;;;;6.67;100.00;100803.78;5035818;28;20075;-74
2024/01/22 00:09:25;;;;;;;6.35;5.10;;;;;;;6.73;100.00;100793.00;5035771;28;20408;-74
2024/01/22 00:11:51;;;;;;;9.32;4.90;;;;;;;6.75;100.00;100770.00;5040374;28;20553;-73
2024/01/22 00:14:17;;;;;;;5.80;4.60;;;;;;;6.71;100.00;100785.09;5041041;28;20110;-73
2024/01/22 00:16:42;;;;;;;7.65;4.88;;;;;;;6.77;100.00;100784.00;5039719;28;20025;-75
2024/01/22 00:19:07;;;;;;;5.28;4.70;;;;;;;6.72;100.00;100757.72;5035091;28;20037;-74
2024/01/22 00:21:33;;;;;;;6.32;4.70;;;;;;;6.76;100.00;100757.63;5036428;28;20039;-74
2024/01/22 00:23:58;;;;;;;5.28;4.60;;;;;;;6.80;100.00;100760.09;5041012;28;20554;-75
2024/01/22 00:26:24;;;;;;;6.22;4.55;;;;;;;6.75;100.00;100772.63;5036984;28;20028;-75
2024/01/22 00:28:49;;;;;;;5.63;4.10;;;;;;;6.82;100.00;100766.22;5034814;28;20383;-75
2024/01/22 00:31:15;;;;;;;5.22;4.72;;;;;;;6.80;100.00;100757.44;5042734;28;20031;-74
2024/01/22 00:33:44;;;;;;;6.88;4.90;;;;;;;6.89;100.00;100751.81;5037676;28;20112;-75
2024/01/22 00:36:13;;;;;;;7.18;4.60;;;;;;;6.91;100.00;100746.50;5036358;28;20031;-75
2024/01/22 00:38:42;;;;;;;5.85;4.38;;;;;;;6.93;100.00;100755.22;5039285;28;20047;-76
2024/01/22 00:41:08;;;;;;;5.88;4.57;;;;;;;6.94;100.00;100733.16;5040082;28;20025;-75
2024/01/22 00:43:34;;;;;;;6.15;4.60;;;;;;;7.06;100.00;100700.03;5039268;28;20067;-76
2024/01/22 00:46:02;;;;;;;5.65;4.50;;;;;;;7.07;100.00;100696.50;5038036;28;20497;-75
2024/01/22 00:48:28;;;;;;;4.95;4.15;;;;;;;7.06;100.00;100711.47;5036439;28;20041;-76
2024/01/22 00:50:56;;;;;;;4.53;3.97;;;;;;;7.10;100.00;100717.53;5037109;28;20040;-75
2024/01/22 00:53:22;;;;;;;4.72;4.10;;;;;;;7.10;100.00;100691.06;5036409;28;20483;-75
2024/01/22 00:55:48;;;;;;;4.43;3.80;;;;;;;7.10;100.00;100675.19;5041457;28;20021;-75
2024/01/22 00:58:13;;;;;;;5.50;4.10;;;;;;;7.13;100.00;100690.94;5037680;28;20469;-75
2024/01/22 01:00:38;;;;;;;4.32;3.80;;;;;;;7.17;100.00;100688.13;5044128;28;20119;-76
2024/01/22 01:03:04;;;;;;;5.22;3.80;;;;;;;7.19;100.00;100674.81;5044515;28;20025;-76
2024/01/22 01:05:29;;;;;;;5.38;4.15;;;;;;;7.18;100.00;100675.75;5044579;28;20029;-75
2024/01/22 01:07:55;;;;;;;5.78;4.07;;;;;;;7.18;100.00;100691.63;5037397;28;20424;-75
2024/01/22 01:10:20;;;;;;;4.88;3.70;;;;;;;7.19;100.00;100686.28;5040220;28;20037;-75
2024/01/22 01:12:45;;;;;;;6.05;4.05;;;;;;;7.23;100.00;100694.94;5043262;28;20036;-76
2024/01/22 01:15:11;;;;;;;3.95;3.47;;;;;;;7.29;100.00;100664.75;5044054;28;20387;-75
2024/01/22 01:17:37;;;;;;;4.95;3.85;;;;;;;7.19;100.00;100674.81;5042548;28;20052;-76
2024/01/22 01:20:03;;;;;;;4.72;3.75;;;;;;;7.23;100.00;100679.06;5039939;28;20046;-76
2024/01/22 01:22:30;;;;;;;4.43;3.65;;;;;;;7.30;100.00;100679.69;5040533;28;20171;-75
2024/01/22 01:24:55;;;;;;;3.72;3.42;;;;;;;7.28;100.00;100655.09;5037992;28;20071;-75
2024/01/22 01:27:20;;;;;;;4.85;3.50;;;;;;;7.28;100.00;100648.00;5044070;28;20445;-76
2024/01/22 01:29:46;;;;;;;4.53;3.70;;;;;;;7.29;100.00;100627.69;5043715;28;20709;-75
2024/01/22 01:32:11;;;;;;;4.15;3.40;;;;;;;7.31;100.00;100645.22;5042657;28;20461;-75
2024/01/22 01:34:36;;;;;;;5.35;3.30;;;;;;;7.42;100.00;100661.53;5041353;28;20116;-75
2024/01/22 01:37:04;;;;;;;3.63;3.25;;;;;;;7.41;100.00;100662.47;5041163;28;20369;-76
2024/01/22 01:39:29;;;;;;;3.45;3.15;;;;;;;7.39;100.00;100647.53;5042373;28;20426;-76
2024/01/22 01:41:57;;;;;;;4.00;3.22;;;;;;;7.40;100.00;100651.94;5042266;28;20051;-75
2024/01/22 01:44:38;;;;;;;4.35;3.15;;;;;;;7.50;100.00;100629.44;5042409;28;20566;-75
2024/01/22 01:47:04;;;;;;;4.88;3.03;;;;;;;7.43;100.00;100599.69;5040886;28;20040;-75
2024/01/22 01:49:29;;;;;;;3.58;3.28;;;;;;;7.53;100.00;100608.13;5040226;28;20037;-74
2024/01/22 01:51:55;;;;;;;4.47;2.95;;;;;;;7.55;100.00;100618.66;5041048;28;20041;-74
2024/01/22 01:54:21;;;;;;;4.90;3.22;;;;;;;7.61;100.00;100606.03;5040682;28;20040;-74
2024/01/22 01:56:46;;;;;;;3.63;2.90;;;;;;;7.66;100.00;100574.03;5042093;28;20474;-74
2024/01/22 01:59:12;;;;;;;3.88;3.25;;;;;;;7.71;100.00;100578.19;5044240;28;20063;-74
2024/01/22 02:01:37;;;;;;;5.00;3.20;;;;;;;7.71;100.00;100564.97;5036745;28;20021;-74
2024/01/22 02:04:03;;;;;;;4.30;3.17;;;;;;;7.72;100.00;100592.31;5044078;28;20036;-74
2024/01/22 02:06:28;;;;;;;3.22;2.85;;;;;;;7.69;100.00;100589.78;5041601;28;20355;-74
2024/01/22 02:08:53;;;;;;;3.13;2.83;;;;;;;7.73;100.00;100571.06;5042018;28;20020;-75
2024/01/22 02:11:20;;;;;;;3.22;2.90;;;;;;;7.73;100.00;100565.75;5040193;28;20055;-75
2024/01/22 02:13:45;;;;;;;5.90;3.40;;;;;;;7.77;100.00;100579.72;5041683;28;20075;-74
2024/01/22 02:16:11;;;;;;;3.50;2.78;;;;;;;7.77;100.00;100577.06;5041361;28;20471;-74
2024/01/22 02:18:36;;;;;;;3.58;2.72;;;;;;;7.79;100.00;100583.19;5041595;28;20377;-73
2024/01/22 02:21:02;;;;;;;5.25;3.08;;;;;;;7.77;100.00;100557.66;5042548;28;20090;-75
2024/01/22 02:23:27;;;;;;;4.32;3.05;;;;;;;7.78;100.00;100573.50;5036686;28;20502;-74
2024/01/22 02:25:52;;;;;;;4.30;2.97;;;;;;;7.80;100.00;100541.63;5045093;28;20043;-74
2024/01/22 02:28:18;;;;;;;3.53;3.00;;;;;;;7.80;100.00;100547.78;5043420;28;20025;-74
2024/01/22 02:30:43;;;;;;;3.33;3.00;;;;;;;7.85;100.00;100548.44;5033453;28;20033;-75
2024/01/22 02:33:08;;;;;;;3.00;2.70;;;;;;;7.93;100.00;100545.47;5041508;28;20040;-74
2024/01/22 02:35:34;;;;;;;3.42;3.10;;;;;;;7.98;100.00;100539.03;5041448;28;20245;-76
2024/01/22 02:37:59;;;;;;;4.03;2.80;;;;;;;7.96;100.00;100540.88;5042344;28;20025;-74
2024/01/22 02:40:25;;;;;;;3.15;2.80;;;;;;;7.99;100.00;100529.31;5042041;28;20025;-75
2024/01/22 02:42:51;;;;;;;3.10;2.80;;;;;;;7.92;100.00;100506.66;5044348;28;20029;-75
2024/01/22 02:45:16;;;;;;;3.50;2.95;;;;;;;7.72;100.00;100467.78;5043804;28;20032;-75
2024/01/22 02:47:42;;;;;;;3.13;2.83;;;;;;;7.85;100.00;100455.72;5043514;28;20041;-76
2024/01/22 02:50:08;;;;;;;4.28;2.50;;;;;;;7.90;100.00;100476.69;5041803;28;20016;-76
2024/01/22 02:52:33;;;;;;;2.97;2.67;;;;;;;7.98;100.00;100461.31;5037310;28;20550;-76
2024/01/22 02:54:58;;;;;;;4.30;2.63;;;;;;;8.03;100.00;100461.97;5043087;28;20128;-75
2024/01/22 02:57:24;;;;;;;4.80;2.80;;;;;;;7.97;100.00;100457.78;5042189;28;20067;-75
2024/01/22 02:59:49;;;;;;;3.28;2.88;;;;;;;7.93;100.00;100461.50;5040875;28;20505;-75
2024/01/22 03:02:14;;;;;;;3.38;2.92;;;;;;;7.96;100.00;100465.81;5039546;28;20411;-76
2024/01/22 03:04:39;;;;;;;4.07;3.08;;;;;;;7.95;100.00;100461.47;5041931;28;20033;-76
2024/01/22 03:07:05;;;;;;;3.30;2.70;;;;;;;7.82;100.00;100437.31;5038129;28;20471;-75
2024/01/22 03:09:30;;;;;;;4.63;3.17;;;;;;;7.75;100.00;100427.94;5035545;28;20483;-75
2024/01/22 03:11:56;;;;;;;3.30;3.00;;;;;;;7.63;100.00;100433.78;5043286;28;20544;-76
2024/01/22 03:14:21;;;;;;;4.45;3.20;;;;;;;7.57;100.00;100437.56;5043718;28;20033;-76
2024/01/22 03:16:47;;;;;;;3.85;3.05;;;;;;;7.46;100.00;100408.91;5040786;28;20577;-76
2024/01/22 03:19:12;;;;;;;5.55;3.10;;;;;;;7.45;100.00;100424.88;5035961;28;20415;-76
2024/01/22 03:21:37;;;;;;;3.50;3.20;;;;;;;7.35;100.00;100403.22;5040565;28;20734;-76
2024/01/22 03:24:03;;;;;;;3.42;3.13;;;;;;;7.47;100.00;100389.44;5040497;28;20044;-78
2024/01/22 03:26:28;;;;;;;3.42;3.13;;;;;;;7.37;100.00;100393.44;5041095;28;20032;-79
2024/01/22 03:28:54;;;;;;;3.60;3.30;;;;;;;7.48;100.00;100407.06;5039647;28;20041;-85
2024/01/22 03:31:29;;;;;;;5.78;3.55;;;;;;;7.39;100.00;100407.47;5039143;28;20063;-82
2024/01/22 03:33:56;;;;;;;3.80;3.50;;;;;;;7.39;100.00;100404.81;5040553;28;20040;-82
2024/01/22 03:36:22;;;;;;;3.80;3.40;;;;;;;7.39;100.00;100401.31;5036807;28;20319;-78
2024/01/22 03:38:48;;;;;;;4.68;3.50;;;;;;;7.36;100.00;100394.38;5034211;28;20033;-81
2024/01/22 03:41:14;;;;;;;3.50;3.20;;;;;;;7.45;100.00;100388.66;5037970;28;20086;-78
2024/01/22 03:43:43;;;;;;;3.92;3.55;;;;;;;7.41;100.00;100387.09;5036057;28;20029;-79
2024/01/22 03:46:10;;;;;;;3.88;3.38;;;;;;;7.39;100.00;100372.19;5041924;28;20052;-84
2024/01/22 03:48:36;;;;;;;3.60;3.30;;;;;;;7.46;100.00;100385.09;5047830;28;20119;-82
2024/01/22 03:51:02;;;;;;;3.63;3.33;;;;;;;7.51;100.00;100386.66;5047214;28;20449;-85
2024/01/22 03:53:27;;;;;;;3.45;3.15;;;;;;;7.52;100.00;100372.47;5040393;28;20055;-78
2024/01/22 03:55:53;;;;;;;3.70;3.40;;;;;;;7.52;100.00;100383.06;5039047;28;20033;-82
2024/01/22 03:58:18;;;;;;;3.63;3.17;;;;;;;7.52;100.00;100364.53;5037241;28;20147;-83
2024/01/22 04:00:43;;;;;;;3.17;2.88;;;;;;;7.53;100.00;100376.88;5039639;28;20021;-77
2024/01/22 04:03:09;;;;;;;3.25;2.95;;;;;;;7.55;100.00;100380.28;5040878;28;20473;-83
2024/01/22 04:05:35;;;;;;;5.60;3.17;;;;;;;7.53;100.00;100359.19;5040904;28;20479;-81
2024/01/22 04:08:00;;;;;;;3.45;2.90;;;;;;;7.47;100.00;100347.06;5039074;28;20704;-85
2024/01/22 04:10:26;;;;;;;4.78;3.00;;;;;;;7.58;100.00;100351.03;5036735;28;20391;-83
2024/01/22 04:12:55;;;;;;;3.85;3.03;;;;;;;7.57;100.00;100375.81;5041627;28;20052;-80
2024/01/22 04:15:20;;;;;;;3.88;3.15;;;;;;;7.55;100.00;100353.81;5039630;28;20151;-84
2024/01/22 04:17:45;;;;;;;3.38;3.08;;;;;;;7.61;100.00;100364.13;5038941;28;20625;-82
2024/01/22 04:20:11;;;;;;;3.30;3.00;;;;;;;7.53;100.00;100339.78;5042918;28;20035;-80
2024/01/22 04:22:37;;;;;;;4.18;2.83;;;;;;;7.63;100.00;100356.97;5040106;28;20044;-79
2024/01/22 04:25:03;;;;;;;3.10;2.80;;;;;;;7.62;100.00;100329.63;5038069;28;20029;-83
2024/01/22 04:27:28;;;;;;;4.75;3.22;;;;;;;7.67;100.00;100345.31;5051039;28;20292;-78
2024/01/22 04:29:54;;;;;;;4.25;3.08;;;;;;;7.66;100.00;100346.25;5039100;28;20041;-80
2024/01/22 04:32:19;;;;;;;3.30;2.85;;;;;;;7.62;100.00;100313.72;5041072;28;20098;-82
2024/01/22 04:34:46;;;;;;;3.30;3.00;;;;;;;7.70;100.00;100353.13;5038369;28;20479;-78
2024/01/22 04:37:12;;;;;;;3.08;2.88;;;;;;;7.72;100.00;100351.22;5040718;28;20029;-81
2024/01/22 04:39:39;;;;;;;4.10;2.92;;;;;;;7.63;100.00;100333.97;5040509;28;20090;-76
2024/01/22 04:42:04;;;;;;;3.35;2.90;;;;;;;7.69;100.00;100340.78;5040394;28;20424;-81
2024/01/22 04:44:30;;;;;;;3.33;3.00;;;;;;;7.79;100.00;100360.63;5043116;28;20078;-79
2024/01/22 04:46:56;;;;;;;3.33;2.90;;;;;;;7.79;100.00;100344.72;5032530;28;20107;-80
2024/01/22 04:49:21;;;;;;;3.20;2.83;;;;;;;7.78;100.00;100324.47;5037971;28;20029;-77
2024/01/22 04:51:47;;;;;;;3.30;2.63;;;;;;;7.78;100.00;100339.50;5050773;28;20281;-81
2024/01/22 04:54:12;;;;;;;5.22;2.88;;;;;;;7.81;100.00;100326.09;5045313;28;20045;-80
2024/01/22 04:56:42;;;;;;;3.78;2.92;;;;;;;7.86;100.00;100324.06;5040133;28;20064;-77
2024/01/22 04:59:08;;;;;;;3.17;2.50;;;;;;;7.91;100.00;100346.78;5039848;28;20039;-78
2024/01/22 05:01:33;;;;;;;3.92;2.78;;;;;;;7.93;100.00;100334.31;5039536;28;20032;-83
2024/01/22 05:03:59;;;;;;;2.45;2.25;;;;;;;7.95;100.00;100326.31;5039302;28;20037;-79
2024/01/22 05:06:24;;;;;;;4.25;2.65;;;;;;;7.94;100.00;100314.84;5047636;28;20278;-77
2024/01/22 05:08:49;;;;;;;3.25;2.30;;;;;;;7.93;100.00;100307.81;5043673;28;20032;-82
2024/01/22 05:11:15;;;;;;;4.22;2.90;;;;;;;8.02;100.00;100332.16;5041434;28;20521;-81
2024/01/22 05:13:52;;;;;;;2.75;2.42;;;;;;;7.93;100.00;100302.50;5038777;28;20036;-77
2024/01/22 05:16:18;;;;;;;3.97;2.30;;;;;;;7.99;100.00;100322.59;5037264;28;20036;-81
2024/01/22 05:18:44;;;;;;;2.63;2.30;;;;;;;8.13;100.00;100343.09;5041703;28;20128;-80
2024/01/22 05:21:10;;;;;;;4.13;2.70;;;;;;;8.09;100.00;100299.97;5039736;28;20029;-82
2024/01/22 05:23:35;;;;;;;3.85;2.28;;;;;;;8.21;100.00;100338.28;5041745;28;20020;-77
2024/01/22 05:26:01;;;;;;;3.72;2.30;;;;;;;8.21;100.00;100328.53;5040973;28;20055;-80
2024/01/22 05:28:26;;;;;;;3.65;2.30;;;;;;;8.24;100.00;100343.44;5042415;28;20392;-79
2024/01/22 05:30:52;;;;;;;2.67;2.08;;;;;;;8.23;100.00;100326.69;5040549;28;20024;-80
2024/01/22 05:33:17;;;;;;;2.30;2.00;;;;;;;8.18;100.00;100318.06;5039344;28;20273;-82
2024/01/22 05:35:42;;;;;;;2.58;2.20;;;;;;;8.30;100.00;100329.03;5041114;28;20057;-79
2024/01/22 05:38:08;;;;;;;3.65;2.70;;;;;;;8.26;100.00;100323.00;5037836;28;20028;-77
2024/01/22 05:40:33;;;;;;;3.17;2.50;;;;;;;8.30;100.00;100329.03;5035386;28;20040;-82
2024/01/22 05:42:58;;;;;;;3.30;2.00;;;;;;;8.34;100.00;100347.34;5041272;28;20025;-78
2024/01/22 05:45:25;;;;;;;3.65;2.45;;;;;;;8.26;100.00;100341.56;5042730;28;20024;-80
2024/01/22 05:47:51;;;;;;;2.83;2.20;;;;;;;8.33;100.00;100342.13;5038268;28;20057;-81
2024/01/22 05:50:16;;;;;;;4.40;2.55;;;;;;;8.34;100.00;100330.59;5043637;28;20056;-82
2024/01/22 05:52:41;;;;;;;3.42;2.45;;;;;;;8.39;100.00;100339.19;5037992;28;20040;-81
2024/01/22 05:55:07;;;;;;;4.82;2.83;;;;;;;8.36;100.00;100336.66;5042697;28;20028;-80
2024/01/22 05:57:33;;;;;;;3.10;2.50;;;;;;;8.30;100.00;100321.06;5036602;28;20052;-81
2024/01/22 05:59:58;;;;;;;2.70;2.50;;;;;;;8.35;100.00;100337.59;5042640;28;20033;-76
2024/01/22 06:02:24;;;;;;;4.10;2.90;;;;;;;8.37;100.00;100341.94;5042224;28;20055;-76
2024/01/22 06:04:49;;;;;;;3.42;2.40;;;;;;;8.37;100.00;100331.34;5038271;28;20029;-79
2024/01/22 06:07:14;;;;;;;3.45;2.47;;;;;;;8.38;100.00;100334.84;5038466;28;20032;-77
2024/01/22 06:09:40;;;;;;;5.13;2.60;;;;;;;8.36;100.00;100332.25;5039662;28;20033;-80
2024/01/22 06:12:05;;;;;;;4.25;2.72;;;;;;;8.29;100.00;100312.25;5035885;28;20037;-79
2024/01/22 06:14:31;;;;;;;3.22;2.80;;;;;;;8.44;100.00;100319.50;5039568;28;20024;-79
2024/01/22 06:16:56;;;;;;;4.18;3.00;;;;;;;8.46;100.00;100341.47;5044541;28;20041;-78
2024/01/22 06:19:22;;;;;;;4.70;2.80;;;;;;;8.41;100.00;100337.34;5040908;28;20226;-78
2024/01/22 06:21:48;;;;;;;3.60;2.50;;;;;;;8.43;100.00;100338.09;5041583;28;20272;-80
2024/01/22 06:24:15;;;;;;;5.53;3.13;;;;;;;8.46;100.00;100357.38;5043860;28;20264;-78
2024/01/22 06:26:40;;;;;;;4.97;2.80;;;;;;;8.39;100.00;100345.34;5040327;28;20155;-82
2024/01/22 06:29:08;;;;;;;4.10;2.80;;;;;;;8.44;100.00;100371.66;5035946;28;20048;-81
2024/01/22 06:31:33;;;;;;;4.38;3.20;;;;;;;8.42;100.00;100358.47;5039124;28;20044;-80
2024/01/22 06:34:02;;;;;;;5.15;3.50;;;;;;;8.30;100.00;100344.94;5042373;28;20024;-79
2024/01/22 06:36:29;;;;;;;4.70;4.00;;;;;;;8.36;100.00;100361.41;5044980;28;20029;-80
2024/01/22 06:38:54;;;;;;;4.53;3.28;;;;;;;8.29;100.00;100352.03;5042046;28;20017;-80
2024/01/22 06:41:22;;;;;;;5.18;4.28;;;;;;;8.39;100.00;100374.53;5039306;28;20499;-78
2024/01/22 06:43:48;;;;;;;6.07;3.70;;;;;;;8.40;100.00;100370.06;5038691;28;20136;-77
2024/01/22 06:46:13;;;;;;;7.38;3.83;;;;;;;8.44;100.00;100358.38;5041077;28;20068;-75
2024/01/22 06:48:38;;;;;;;4.13;3.72;;;;;;;8.44;100.00;100345.13;5039670;28;20051;-77
2024/01/22 06:51:04;;;;;;;4.90;4.13;;;;;;;8.43;100.00;100344.28;5041746;28;20020;-78
2024/01/22 06:53:29;;;;;;;5.53;3.72;;;;;;;8.32;100.00;100325.38;5041316;28;20044;-74
2024/01/22 06:55:55;;;;;;;5.88;3.78;;;;;;;8.41;100.00;100356.75;5041401;28;20238;-83
2024/01/22 06:58:20;;;;;;;6.20;4.50;;;;;;;8.38;100.00;100358.69;5040382;28;20325;-78
2024/01/22 07:00:45;;;;;;;4.93;4.40;;;;;;;8.40;100.00;100364.78;5041331;28;20479;-76
2024/01/22 07:03:12;;;;;;;4.45;4.03;;;;;;;8.48;100.00;100373.22;5040652;28;20052;-81
2024/01/22 07:05:37;;;;;;;4.35;3.85;;;;;;;8.43;100.00;100368.13;5045676;28;20231;-80
2024/01/22 07:08:04;;;;;;;5.78;3.53;;;;;;;8.40;100.00;100370.06;5047457;28;20125;-80
2024/01/22 07:10:30;;;;;;;4.80;3.85;;;;;;;8.48;100.00;100386.47;5043719;28;20476;-78
2024/01/22 07:12:56;;;;;;;5.50;3.90;;;;;;;8.51;100.00;100378.38;5044224;28;20043;-82
2024/01/22 07:15:22;;;;;;;11.68;4.88;;;;;;;8.48;100.00;100376.75;5044095;28;20020;-81
2024/01/22 07:17:48;;;;;;;5.72;4.20;;;;;;;8.46;100.00;100373.31;5044944;28;20036;-76
2024/01/22 07:20:16;;;;;;;4.50;3.85;;;;;;;8.46;100.00;100377.75;5043731;28;20434;-81
2024/01/22 07:22:42;;;;;;;8.73;4.00;;;;;;;8.40;100.00;100365.66;5046002;28;20035;-81
2024/01/22 07:25:09;;;;;;;8.07;3.97;;;;;;;8.47;100.00;100377.66;5046664;28;20040;-78
2024/01/22 07:27:37;;;;;;;5.45;3.50;;;;;;;8.46;100.00;100372.44;5037722;28;20044;-80
2024/01/22 07:30:07;;;;;;;7.32;4.00;;;;;;;8.39;100.00;100358.63;5043403;28;20021;-79
2024/01/22 07:32:36;;;;;;;4.63;3.35;;;;;;;8.35;100.00;100354.38;5045402;28;20037;-81
2024/01/22 07:35:03;;;;;;;8.45;3.92;;;;;;;8.33;100.00;100358.03;5044767;28;20048;-78
2024/01/22 07:37:28;;;;;;;5.68;3.10;;;;;;;8.43;100.00;100380.53;5042376;28;20032;-80
2024/01/22 07:39:53;;;;;;;4.75;3.20;;;;;;;8.36;100.00;100348.16;5041090;28;20036;-80
2024/01/22 07:42:19;;;;;;;6.47;3.10;;;;;;;8.52;100.00;100381.88;5043747;28;20029;-79
2024/01/22 07:44:44;;;;;;;8.48;3.38;;;;;;;8.54;100.00;100380.03;5045900;28;20021;-80
2024/01/22 07:47:10;;;;;;;6.43;3.08;;;;;;;8.52;100.00;100374.78;5041748;28;20387;-80
2024/01/22 07:49:35;;;;;;;10.90;3.63;;;;;;;8.53;100.00;100375.63;5041747;28;20067;-79
2024/01/22 07:52:01;;;;;;;8.88;3.40;;;;;;;8.56;100.00;100381.66;5044934;28;20463;-78
2024/01/22 07:54:26;;;;;;;10.30;4.55;;;;;;;8.57;100.00;100380.75;5042654;28;20589;-79
2024/01/22 07:56:51;;;;;;;11.07;3.85;;;;;;;8.56;100.00;100370.19;5032618;28;20029;-77
2024/01/22 07:59:17;;;;;;;16.10;3.97;;;;;;;8.60;100.00;100366.44;5045738;28;20086;-77
2024/01/22 08:01:42;;;;;;;11.52;3.80;;;;;;;8.62;100.00;100369.91;5044793;28;20493;-75
2024/01/22 08:04:08;;;;;;;17.00;4.93;;;;;;;8.65;100.00;100367.06;5042303;28;20615;-78
2024/01/22 08:06:33;;;;;;;16.02;5.22;;;;;;;8.66;100.00;100359.03;5040258;28;20033;-76
2024/01/22 08:09:00;;;;;;;19.35;5.45;;;;;;;8.73;100.00;100362.22;5042501;28;20487;-75
2024/01/22 08:11:25;;;;;;;19.88;5.53;;;;;;;8.72;100.00;100364.03;5038008;28;20033;-78
2024/01/22 08:13:51;;;;;;;20.00;4.97;;;;;;;8.74;100.00;100348.03;5040376;28;20031;-76
2024/01/22 08:16:16;;;;;;;17.42;4.63;;;;;;;8.79;100.00;100369.03;5037651;28;20124;-76
2024/01/22 08:18:41;;;;;;;16.63;5.65;;;;;;;8.69;100.00;100360.66;5041354;28;20029;-78
2024/01/22 08:21:07;;;;;;;18.30;4.60;;;;;;;8.73;100.00;100376.34;5033521;28;20045;-77
2024/01/22 08:23:32;;;;;;;23.42;5.13;;;;;;;8.76;100.00;100371.84;5037281;28;20044;-76
2024/01/22 08:25:58;;;;;;;13.48;4.70;;;;;;;8.75;100.00;100367.47;5037401;28;20071;-75
2024/01/22 08:28:24;;;;;;;18.98;4.82;;;;;;;8.66;100.00;100364.34;5040402;28;20325;-76
2024/01/22 08:30:49;;;;;;;17.70;4.45;;;;;;;8.76;100.00;100378.00;5042960;28;20521;-75
2024/01/22 08:33:14;;;;;;;14.57;4.10;;;;;;;8.68;100.00;100382.84;5041532;28;20040;-77
2024/01/22 08:35:40;;;;;;;15.82;4.60;;;;;;;8.72;100.00;100381.75;5039193;28;20116;-76
2024/01/22 08:38:05;;;;;;;10.82;3.47;;;;;;;8.70;100.00;100387.13;5041319;28;20033;-76
2024/01/22 08:40:31;;;;;;;13.88;4.28;;;;;;;8.66;100.00;100377.63;5033627;28;20037;-78
2024/01/22 08:42:57;;;;;;;11.77;3.95;;;;;;;8.60;100.00;100385.88;5041120;28;20021;-76
2024/01/22 08:45:23;;;;;;;12.32;3.70;;;;;;;8.61;100.00;100406.19;5040742;28;20147;-75
2024/01/22 08:47:49;;;;;;;14.40;3.53;;;;;;;8.57;100.00;100403.72;5038432;28;20646;-77
2024/01/22 08:50:17;;;;;;;11.23;3.80;;;;;;;8.62;100.00;100433.56;5038007;28;20095;-77
2024/01/22 08:52:43;;;;;;;12.23;3.72;;;;;;;8.50;100.00;100402.34;5036384;28;20034;-76
2024/01/22 08:55:09;;;;;;;13.48;3.83;;;;;;;8.48;100.00;100403.28;5038049;28;20048;-76
2024/01/22 08:57:35;;;;;;;9.15;4.10;;;;;;;8.55;100.00;100429.47;5037179;28;20036;-75
2024/01/22 09:00:00;;;;;;;12.30;3.58;;;;;;;8.46;100.00;100422.84;5041476;28;20548;-78
2024/01/22 09:02:26;;;;;;;12.50;3.80;;;;;;;8.53;100.00;100434.00;5034992;28;20044;-77
2024/01/22 09:04:51;;;;;;;13.77;4.20;;;;;;;8.51;100.00;100419.97;5038468;28;20029;-78
2024/01/22 09:07:19;;;;;;;17.75;4.93;;;;;;;8.50;100.00;100411.16;5037706;28;20423;-76
2024/01/22 09:09:44;;;;;;;18.70;4.57;;;;;;;8.54;100.00;100422.47;5040043;28;20029;-76
2024/01/22 09:12:10;;;;;;;16.38;4.45;;;;;;;8.54;100.00;100419.81;5034271;28;20103;-77
2024/01/22 09:14:35;;;;;;;16.75;5.45;;;;;;;8.53;100.00;100418.97;5038563;28;20036;-74
2024/01/22 09:17:00;;;;;;;18.33;5.28;;;;;;;8.49;100.00;100409.44;5039095;28;20390;-76
2024/01/22 09:19:27;;;;;;;15.60;4.80;;;;;;;8.52;100.00;100414.56;5039384;28;21301;-74
2024/01/22 09:21:53;;;;;;;17.13;5.18;;;;;;;8.57;100.00;100419.63;5042667;28;20124;-74
2024/01/22 09:24:18;;;;;;;20.77;5.60;;;;;;;8.57;100.00;100409.91;5041362;28;20547;-77
2024/01/22 09:26:43;;;;;;;20.73;5.88;;;;;;;8.48;100.00;100391.78;5040641;28;20029;-75
2024/01/22 09:29:09;;;;;;;19.88;5.55;;;;;;;8.50;100.00;100399.69;5043402;28;20663;-76
2024/01/22 09:31:35;;;;;;;17.55;5.47;;;;;;;8.47;100.00;100398.03;5044686;28;20033;-76
2024/01/22 09:34:00;;;;;;;20.55;5.03;;;;;;;8.58;100.00;100418.72;5040591;28;20482;-78
2024/01/22 09:36:25;;;;;;;17.65;4.70;;;;;;;8.58;100.00;100414.28;5041023;28;20341;-76
2024/01/22 09:38:53;;;;;;;15.77;4.40;;;;;;;8.59;100.00;100426.59;5041042;28;20083;-76
2024/01/22 09:41:18;;;;;;;18.70;4.88;;;;;;;8.61;100.00;100416.78;5040915;28;20025;-75
2024/01/22 09:43:45;;;;;;;18.65;4.50;;;;;;;8.61;100.00;100427.41;5037833;28;20396;-78
2024/01/22 09:46:12;;;;;;;18.17;4.55;;;;;;;8.61;100.00;100422.09;5043660;28;20033;-76
2024/01/22 09:48:37;;;;;;;13.68;4.78;;;;;;;8.66;100.00;100417.41;5044812;28;20364;-76
2024/01/22 09:51:05;;;;;;;18.25;4.88;;;;;;;8.64;100.00;100429.03;5042286;28;20052;-77
2024/01/22 09:53:34;;;;;;;15.45;3.90;;;;;;;8.63;100.00;100422.84;5040371;28;20532;-78
2024/01/22 09:56:04;;;;;;;14.88;4.55;;;;;;;8.63;100.00;100429.97;5038900;28;20126;-76
2024/01/22 09:58:37;;;;;;;19.55;4.53;;;;;;;8.60;100.00;100427.47;5042506;28;20029;-75
2024/01/22 10:01:04;;;;;;;15.70;4.45;;;;;;;8.56;100.00;100418.78;5040689;28;20025;-77
2024/01/22 10:03:32;;;;;;;17.17;4.15;;;;;;;8.65;100.00;100449.31;5043266;28;20021;-75
2024/01/22 10:06:02;;;;;;;19.70;4.20;;;;;;;8.66;100.00;100457.22;5040142;28;20033;-77
2024/01/22 10:08:27;;;;;;;13.55;4.20;;;;;;;8.61;100.00;100448.63;5042813;28;20025;-75
2024/01/22 10:10:53;;;;;;;19.65;4.75;;;;;;;8.65;100.00;100452.84;5041446;28;20033;-76
2024/01/22 10:13:18;;;;;;;13.60;3.92;;;;;;;8.62;100.00;100437.06;5039375;28;20020;-77
2024/01/22 10:15:47;;;;;;;16.00;4.43;;;;;;;8.70;100.00;100455.28;5042284;28;20029;-76
2024/01/22 10:18:17;;;;;;;17.92;4.78;;;;;;;8.66;100.00;100459.00;5043937;28;20044;-75
2024/01/22 10:20:45;;;;;;;14.00;4.10;;;;;;;8.73;100.00;100471.00;5041232;28;20068;-77
2024/01/22 10:23:11;;;;;;;19.05;4.13;;;;;;;8.72;100.00;100474.59;5040819;28;20025;-78
2024/01/22 10:25:37;;;;;;;17.40;4.25;;;;;;;8.77;100.00;100488.50;5042572;28;20039;-81
2024/01/22 10:28:21;;;;;;;16.25;4.60;;;;;;;8.62;100.00;100473.34;5038241;28;20534;-76
2024/01/22 10:31:02;;;;;;;16.60;4.57;;;;;;;8.72;100.00;100491.38;5035532;28;20028;-78
2024/01/22 10:33:28;;;;;;;17.95;4.63;;;;;;;8.79;100.00;100499.06;5036870;28;20033;-79
2024/01/22 10:35:53;;;;;;;18.25;5.22;;;;;;;8.75;100.00;100513.41;5040413;28;20094;-78
2024/01/22 10:38:19;;;;;;;19.88;4.88;;;;;;;8.76;100.00;100508.03;5039977;28;20541;-80
2024/01/22 10:40:46;;;;;;;16.02;4.78;;;;;;;8.56;100.00;100510.78;5041540;28;20486;-78
2024/01/22 10:43:21;;;;;;;16.15;4.93;;;;;;;8.70;100.00;100570.22;5042183;28;20033;-80
2024/01/22 10:45:47;;;;;;;16.48;4.35;;;;;;;8.19;100.00;100553.13;5040651;28;20037;-87
2024/01/22 10:48:15;;;;;;;20.27;4.47;;;;;;;7.82;100.00;100583.06;5041368;28;20052;-76
2024/01/22 10:50:42;;;;;;;15.00;4.03;;;;;;;7.62;100.00;100583.03;5041059;28;20117;-83
2024/01/22 10:53:09;;;;;;;20.10;4.80;;;;;;;7.37;100.00;100570.84;5039143;28;21360;-83
2024/01/22 10:55:34;;;;;;;22.33;5.53;;;;;;;7.10;100.00;100548.16;5036966;28;20178;-79
2024/01/22 10:58:08;;;;;;;21.60;5.22;;;;;;;7.11;100.00;100555.19;5037232;28;20029;-78
2024/01/22 11:00:40;;;;;;;20.33;5.65;;;;;;;6.95;100.00;100563.75;5036616;28;20527;-84
2024/01/22 11:03:08;;;;;;;20.63;5.68;;;;;;;6.94;100.00;100556.72;5040677;28;20035;-82
2024/01/22 11:05:39;;;;;;;25.27;6.10;;;;;;;6.92;100.00;100563.84;5023292;28;20029;-86
2024/01/22 11:08:08;;;;;;;20.25;5.35;;;;;;;6.88;100.00;100564.91;5040120;28;20079;-81
2024/01/22 11:10:34;;;;;;;25.98;6.20;;;;;;;6.86;100.00;100557.97;5041509;28;20111;-83
2024/01/22 11:13:00;;;;;;;29.45;6.45;;;;;;;6.89;100.00;100560.47;5042508;28;20032;-84
2024/01/22 11:15:25;;;;;;;31.92;7.18;;;;;;;6.84;100.00;100565.09;5041298;28;20021;-81
2024/01/22 11:17:51;;;;;;;30.35;7.30;;;;;;;6.83;100.00;100558.06;5040876;28;20082;-81